KICT

Wichita Dwight D Eisenhower National Airport

Wichita, Kansas, USA
METAR KICT 230053Z 15005KT 10SM FEW150 SCT200 16/09 A3013 RMK AO2 SLP201 T01560094 $
Observed Flight Rules
Oct-23 @ 00:53 UTC (31 minutes ago) Visual Flight Rules
Wind Visibility Clouds
150° at 5 knots 10 miles
  • Few at 15,000' AGL
  • Scattered at 20,000' AGL
Temperatures Readings
Current 16°C / 61°F
Dewpoint 9°C / 48°F
Humidity 63%
Altimeter 30.13" Hg
Pressure 1020.1 hPa
Elevation 407
METAR KICT 230053Z 15005KT 10SM FEW150 SCT200 16/09 A3013 RMK AO2 SLP201 T01560094 $
Observed Flight Rules
Oct-23 @ 00:53 UTC
(31 minutes ago)
VFR
Wind Visibility
150° at 5 knots 10 miles
Clouds
  • Few at 15,000' AGL
  • Scattered at 20,000' AGL
Temperature Dewpoint
16°C / 61°F 9°C / 48°F
Humidity Altimeter Pressure
63% 30.13" Hg 1020.1 hPa